sensor_id;sensor_type;location;lat;lon;timestamp;P1;durP1;ratioP1;P2;durP2;ratioP2
62673;SDS011;62269;47.594;17.638;2023-07-31T00:00:39;7.80;;;5.40;;
62673;SDS011;62269;47.594;17.638;2023-07-31T00:01:36;9.98;;;5.62;;
62673;SDS011;62269;47.594;17.638;2023-07-31T00:02:33;8.75;;;5.82;;
62673;SDS011;62269;47.594;17.638;2023-07-31T00:03:30;6.47;;;5.35;;
62673;SDS011;62269;47.594;17.638;2023-07-31T00:04:27;7.28;;;5.50;;
62673;SDS011;62269;47.594;17.638;2023-07-31T00:05:24;7.68;;;5.62;;
62673;SDS011;62269;47.594;17.638;2023-07-31T00:06:21;7.30;;;5.32;;
62673;SDS011;62269;47.594;17.638;2023-07-31T00:07:18;7.95;;;5.30;;
62673;SDS011;62269;47.594;17.638;2023-07-31T00:08:15;8.50;;;5.28;;
62673;SDS011;62269;47.594;17.638;2023-07-31T00:09:12;7.43;;;4.97;;
62673;SDS011;62269;47.594;17.638;2023-07-31T00:10:09;11.30;;;6.10;;
62673;SDS011;62269;47.594;17.638;2023-07-31T00:11:06;11.93;;;5.82;;
62673;SDS011;62269;47.594;17.638;2023-07-31T00:12:04;8.10;;;5.68;;
62673;SDS011;62269;47.594;17.638;2023-07-31T00:13:01;9.65;;;5.57;;
62673;SDS011;62269;47.594;17.638;2023-07-31T00:13:58;6.50;;;5.22;;
62673;SDS011;62269;47.594;17.638;2023-07-31T00:14:55;7.32;;;5.43;;
62673;SDS011;62269;47.594;17.638;2023-07-31T00:15:52;9.02;;;5.18;;
62673;SDS011;62269;47.594;17.638;2023-07-31T00:16:49;6.97;;;5.10;;
62673;SDS011;62269;47.594;17.638;2023-07-31T00:17:48;9.40;;;4.72;;
62673;SDS011;62269;47.594;17.638;2023-07-31T00:18:45;10.07;;;5.62;;
62673;SDS011;62269;47.594;17.638;2023-07-31T00:19:42;11.12;;;5.32;;
62673;SDS011;62269;47.594;17.638;2023-07-31T00:20:39;7.30;;;5.30;;
62673;SDS011;62269;47.594;17.638;2023-07-31T00:21:36;7.25;;;5.20;;
62673;SDS011;62269;47.594;17.638;2023-07-31T00:22:33;8.40;;;4.90;;
62673;SDS011;62269;47.594;17.638;2023-07-31T00:23:30;7.00;;;5.03;;
62673;SDS011;62269;47.594;17.638;2023-07-31T00:24:27;6.07;;;4.95;;
62673;SDS011;62269;47.594;17.638;2023-07-31T00:25:24;6.45;;;5.20;;
62673;SDS011;62269;47.594;17.638;2023-07-31T00:26:21;8.80;;;5.75;;
62673;SDS011;62269;47.594;17.638;2023-07-31T00:27:18;10.63;;;5.40;;
62673;SDS011;62269;47.594;17.638;2023-07-31T00:28:15;9.65;;;5.57;;
62673;SDS011;62269;47.594;17.638;2023-07-31T00:29:12;7.18;;;5.28;;
62673;SDS011;62269;47.594;17.638;2023-07-31T00:30:09;9.32;;;5.07;;
62673;SDS011;62269;47.594;17.638;2023-07-31T00:31:07;7.97;;;5.10;;
62673;SDS011;62269;47.594;17.638;2023-07-31T00:32:04;8.90;;;5.65;;
62673;SDS011;62269;47.594;17.638;2023-07-31T00:33:01;7.22;;;5.55;;
62673;SDS011;62269;47.594;17.638;2023-07-31T00:33:58;8.60;;;5.40;;
62673;SDS011;62269;47.594;17.638;2023-07-31T00:34:55;8.75;;;6.10;;
62673;SDS011;62269;47.594;17.638;2023-07-31T00:35:52;9.00;;;6.00;;
62673;SDS011;62269;47.594;17.638;2023-07-31T00:36:49;8.00;;;5.15;;
62673;SDS011;62269;47.594;17.638;2023-07-31T00:37:46;9.25;;;4.95;;
62673;SDS011;62269;47.594;17.638;2023-07-31T00:38:43;8.85;;;5.47;;
62673;SDS011;62269;47.594;17.638;2023-07-31T00:39:40;10.80;;;5.53;;
62673;SDS011;62269;47.594;17.638;2023-07-31T00:40:37;7.35;;;5.20;;
62673;SDS011;62269;47.594;17.638;2023-07-31T00:41:34;11.50;;;5.75;;
62673;SDS011;62269;47.594;17.638;2023-07-31T00:42:31;8.40;;;5.47;;
62673;SDS011;62269;47.594;17.638;2023-07-31T00:43:28;10.93;;;6.28;;
62673;SDS011;62269;47.594;17.638;2023-07-31T00:44:25;15.43;;;6.05;;
62673;SDS011;62269;47.594;17.638;2023-07-31T00:45:22;8.00;;;5.45;;
62673;SDS011;62269;47.594;17.638;2023-07-31T00:46:20;7.57;;;5.10;;
62673;SDS011;62269;47.594;17.638;2023-07-31T00:47:18;6.12;;;5.53;;
62673;SDS011;62269;47.594;17.638;2023-07-31T00:48:15;10.68;;;5.75;;
62673;SDS011;62269;47.594;17.638;2023-07-31T00:49:12;8.52;;;5.30;;
62673;SDS011;62269;47.594;17.638;2023-07-31T00:50:09;11.15;;;5.57;;
62673;SDS011;62269;47.594;17.638;2023-07-31T00:51:07;8.77;;;5.18;;
62673;SDS011;62269;47.594;17.638;2023-07-31T00:52:04;7.60;;;5.32;;
62673;SDS011;62269;47.594;17.638;2023-07-31T00:53:02;6.80;;;5.22;;
62673;SDS011;62269;47.594;17.638;2023-07-31T00:53:59;7.97;;;5.47;;
62673;SDS011;62269;47.594;17.638;2023-07-31T00:54:57;9.23;;;5.78;;
62673;SDS011;62269;47.594;17.638;2023-07-31T00:55:54;9.10;;;5.82;;
62673;SDS011;62269;47.594;17.638;2023-07-31T00:56:51;13.07;;;5.37;;
62673;SDS011;62269;47.594;17.638;2023-07-31T00:57:49;10.60;;;5.18;;
62673;SDS011;62269;47.594;17.638;2023-07-31T00:58:49;7.95;;;5.25;;
62673;SDS011;62269;47.594;17.638;2023-07-31T00:59:46;10.73;;;5.80;;
62673;SDS011;62269;47.594;17.638;2023-07-31T01:00:43;9.40;;;5.28;;
62673;SDS011;62269;47.594;17.638;2023-07-31T01:01:40;10.18;;;5.35;;
62673;SDS011;62269;47.594;17.638;2023-07-31T01:02:37;9.10;;;5.43;;
62673;SDS011;62269;47.594;17.638;2023-07-31T01:03:35;12.95;;;6.00;;
62673;SDS011;62269;47.594;17.638;2023-07-31T01:04:32;7.65;;;5.15;;
62673;SDS011;62269;47.594;17.638;2023-07-31T01:05:33;10.25;;;5.50;;
62673;SDS011;62269;47.594;17.638;2023-07-31T01:06:37;10.27;;;5.20;;
62673;SDS011;62269;47.594;17.638;2023-07-31T01:08:54;7.53;;;5.32;;
62673;SDS011;62269;47.594;17.638;2023-07-31T01:10:00;7.55;;;5.30;;
62673;SDS011;62269;47.594;17.638;2023-07-31T01:11:04;9.52;;;5.50;;
62673;SDS011;62269;47.594;17.638;2023-07-31T01:12:06;8.85;;;5.10;;
62673;SDS011;62269;47.594;17.638;2023-07-31T01:13:04;9.07;;;5.35;;
62673;SDS011;62269;47.594;17.638;2023-07-31T01:14:01;7.45;;;5.32;;
62673;SDS011;62269;47.594;17.638;2023-07-31T01:15:08;8.98;;;5.03;;
62673;SDS011;62269;47.594;17.638;2023-07-31T01:16:10;8.35;;;5.37;;
62673;SDS011;62269;47.594;17.638;2023-07-31T01:17:07;8.50;;;5.57;;
62673;SDS011;62269;47.594;17.638;2023-07-31T01:18:04;8.50;;;6.10;;
62673;SDS011;62269;47.594;17.638;2023-07-31T01:19:01;10.50;;;5.40;;
62673;SDS011;62269;47.594;17.638;2023-07-31T01:19:59;12.32;;;5.78;;
62673;SDS011;62269;47.594;17.638;2023-07-31T01:21:51;5.30;;;4.65;;
62673;SDS011;62269;47.594;17.638;2023-07-31T01:24:00;13.13;;;5.30;;
62673;SDS011;62269;47.594;17.638;2023-07-31T01:26:21;11.07;;;5.07;;
62673;SDS011;62269;47.594;17.638;2023-07-31T01:27:30;8.05;;;5.18;;
62673;SDS011;62269;47.594;17.638;2023-07-31T01:29:35;10.80;;;5.10;;
62673;SDS011;62269;47.594;17.638;2023-07-31T01:30:34;12.40;;;5.10;;
62673;SDS011;62269;47.594;17.638;2023-07-31T01:31:39;8.30;;;5.47;;
62673;SDS011;62269;47.594;17.638;2023-07-31T01:32:40;8.60;;;5.40;;
62673;SDS011;62269;47.594;17.638;2023-07-31T01:33:39;8.75;;;4.85;;
62673;SDS011;62269;47.594;17.638;2023-07-31T01:34:36;7.12;;;5.12;;
62673;SDS011;62269;47.594;17.638;2023-07-31T01:35:34;8.52;;;5.53;;
62673;SDS011;62269;47.594;17.638;2023-07-31T01:36:31;11.45;;;5.35;;
62673;SDS011;62269;47.594;17.638;2023-07-31T01:37:29;10.38;;;5.05;;
62673;SDS011;62269;47.594;17.638;2023-07-31T01:38:28;7.68;;;5.20;;
62673;SDS011;62269;47.594;17.638;2023-07-31T01:39:25;6.82;;;5.20;;
62673;SDS011;62269;47.594;17.638;2023-07-31T01:40:22;12.57;;;5.75;;
62673;SDS011;62269;47.594;17.638;2023-07-31T01:41:19;12.93;;;6.30;;
62673;SDS011;62269;47.594;17.638;2023-07-31T01:42:16;10.00;;;5.18;;
62673;SDS011;62269;47.594;17.638;2023-07-31T01:43:13;10.88;;;5.40;;
62673;SDS011;62269;47.594;17.638;2023-07-31T01:44:10;6.95;;;5.15;;
62673;SDS011;62269;47.594;17.638;2023-07-31T01:45:07;6.40;;;5.57;;
62673;SDS011;62269;47.594;17.638;2023-07-31T01:46:04;7.97;;;5.43;;
62673;SDS011;62269;47.594;17.638;2023-07-31T01:47:01;7.45;;;5.12;;
62673;SDS011;62269;47.594;17.638;2023-07-31T01:47:58;6.97;;;5.40;;
62673;SDS011;62269;47.594;17.638;2023-07-31T01:48:55;10.32;;;5.37;;
62673;SDS011;62269;47.594;17.638;2023-07-31T01:49:52;11.90;;;6.12;;
62673;SDS011;62269;47.594;17.638;2023-07-31T01:50:49;7.12;;;5.28;;
62673;SDS011;62269;47.594;17.638;2023-07-31T01:51:46;10.73;;;5.62;;
62673;SDS011;62269;47.594;17.638;2023-07-31T01:52:43;5.93;;;5.20;;
62673;SDS011;62269;47.594;17.638;2023-07-31T01:53:40;10.48;;;5.50;;
62673;SDS011;62269;47.594;17.638;2023-07-31T01:54:37;7.87;;;5.22;;
62673;SDS011;62269;47.594;17.638;2023-07-31T01:55:34;10.93;;;5.20;;
62673;SDS011;62269;47.594;17.638;2023-07-31T01:56:31;9.27;;;5.43;;
62673;SDS011;62269;47.594;17.638;2023-07-31T01:57:28;8.05;;;5.50;;
62673;SDS011;62269;47.594;17.638;2023-07-31T01:58:25;10.35;;;5.82;;
62673;SDS011;62269;47.594;17.638;2023-07-31T01:59:22;8.18;;;5.15;;
62673;SDS011;62269;47.594;17.638;2023-07-31T02:00:19;9.82;;;5.37;;
62673;SDS011;62269;47.594;17.638;2023-07-31T02:01:16;10.05;;;5.62;;
62673;SDS011;62269;47.594;17.638;2023-07-31T02:02:13;8.98;;;5.53;;
62673;SDS011;62269;47.594;17.638;2023-07-31T02:03:10;10.05;;;5.15;;
62673;SDS011;62269;47.594;17.638;2023-07-31T02:04:07;9.48;;;5.70;;
62673;SDS011;62269;47.594;17.638;2023-07-31T02:05:04;7.60;;;5.57;;
62673;SDS011;62269;47.594;17.638;2023-07-31T02:06:02;20.50;;;6.32;;
62673;SDS011;62269;47.594;17.638;2023-07-31T02:06:59;9.57;;;5.55;;
62673;SDS011;62269;47.594;17.638;2023-07-31T02:07:56;7.37;;;5.93;;
62673;SDS011;62269;47.594;17.638;2023-07-31T02:08:53;6.57;;;5.60;;
62673;SDS011;62269;47.594;17.638;2023-07-31T02:09:50;8.52;;;5.20;;
62673;SDS011;62269;47.594;17.638;2023-07-31T02:10:47;9.10;;;5.75;;
62673;SDS011;62269;47.594;17.638;2023-07-31T02:11:44;10.05;;;5.40;;
62673;SDS011;62269;47.594;17.638;2023-07-31T02:12:41;8.10;;;5.50;;
62673;SDS011;62269;47.594;17.638;2023-07-31T02:13:38;7.80;;;5.45;;
62673;SDS011;62269;47.594;17.638;2023-07-31T02:14:35;11.35;;;5.60;;
62673;SDS011;62269;47.594;17.638;2023-07-31T02:15:32;7.55;;;5.47;;
62673;SDS011;62269;47.594;17.638;2023-07-31T02:16:29;9.55;;;5.55;;
62673;SDS011;62269;47.594;17.638;2023-07-31T02:17:26;12.18;;;5.55;;
62673;SDS011;62269;47.594;17.638;2023-07-31T02:18:23;10.23;;;5.65;;
62673;SDS011;62269;47.594;17.638;2023-07-31T02:19:20;8.90;;;5.07;;
62673;SDS011;62269;47.594;17.638;2023-07-31T02:20:17;7.18;;;5.03;;
62673;SDS011;62269;47.594;17.638;2023-07-31T02:21:14;8.90;;;5.15;;
62673;SDS011;62269;47.594;17.638;2023-07-31T02:22:11;6.82;;;5.57;;
62673;SDS011;62269;47.594;17.638;2023-07-31T02:23:08;7.28;;;5.35;;
62673;SDS011;62269;47.594;17.638;2023-07-31T02:24:05;11.50;;;5.93;;
62673;SDS011;62269;47.594;17.638;2023-07-31T02:25:02;9.60;;;6.00;;
62673;SDS011;62269;47.594;17.638;2023-07-31T02:25:59;10.10;;;5.53;;
62673;SDS011;62269;47.594;17.638;2023-07-31T02:26:56;9.50;;;5.32;;
62673;SDS011;62269;47.594;17.638;2023-07-31T02:27:53;8.68;;;5.57;;
62673;SDS011;62269;47.594;17.638;2023-07-31T02:28:50;6.78;;;5.10;;
62673;SDS011;62269;47.594;17.638;2023-07-31T02:29:47;9.63;;;5.45;;
62673;SDS011;62269;47.594;17.638;2023-07-31T02:30:45;9.15;;;5.28;;
62673;SDS011;62269;47.594;17.638;2023-07-31T02:31:42;9.95;;;5.32;;
62673;SDS011;62269;47.594;17.638;2023-07-31T02:32:39;14.93;;;5.95;;
62673;SDS011;62269;47.594;17.638;2023-07-31T02:33:37;7.57;;;5.55;;
62673;SDS011;62269;47.594;17.638;2023-07-31T02:34:34;6.93;;;5.37;;
62673;SDS011;62269;47.594;17.638;2023-07-31T02:35:31;8.88;;;5.30;;
62673;SDS011;62269;47.594;17.638;2023-07-31T02:36:28;8.75;;;5.90;;
62673;SDS011;62269;47.594;17.638;2023-07-31T02:37:25;9.50;;;5.78;;
62673;SDS011;62269;47.594;17.638;2023-07-31T02:38:22;10.52;;;5.90;;
62673;SDS011;62269;47.594;17.638;2023-07-31T02:39:19;8.65;;;5.35;;
62673;SDS011;62269;47.594;17.638;2023-07-31T02:40:16;8.10;;;4.75;;
62673;SDS011;62269;47.594;17.638;2023-07-31T02:41:13;7.62;;;5.20;;
62673;SDS011;62269;47.594;17.638;2023-07-31T02:42:10;8.23;;;5.20;;
62673;SDS011;62269;47.594;17.638;2023-07-31T02:43:07;9.60;;;5.37;;
62673;SDS011;62269;47.594;17.638;2023-07-31T02:44:05;8.13;;;5.40;;
62673;SDS011;62269;47.594;17.638;2023-07-31T02:45:02;11.23;;;6.15;;
62673;SDS011;62269;47.594;17.638;2023-07-31T02:45:59;9.40;;;5.90;;
62673;SDS011;62269;47.594;17.638;2023-07-31T02:46:56;9.05;;;5.50;;
62673;SDS011;62269;47.594;17.638;2023-07-31T02:47:53;6.93;;;5.10;;
62673;SDS011;62269;47.594;17.638;2023-07-31T02:48:50;10.05;;;5.90;;
62673;SDS011;62269;47.594;17.638;2023-07-31T02:49:47;8.15;;;5.40;;
62673;SDS011;62269;47.594;17.638;2023-07-31T02:50:45;8.93;;;5.25;;
62673;SDS011;62269;47.594;17.638;2023-07-31T02:51:42;9.07;;;5.20;;
62673;SDS011;62269;47.594;17.638;2023-07-31T02:52:39;7.57;;;5.20;;
62673;SDS011;62269;47.594;17.638;2023-07-31T02:53:36;6.25;;;5.20;;
62673;SDS011;62269;47.594;17.638;2023-07-31T02:54:33;6.35;;;5.10;;
62673;SDS011;62269;47.594;17.638;2023-07-31T02:55:30;9.43;;;5.32;;
62673;SDS011;62269;47.594;17.638;2023-07-31T02:56:27;7.28;;;5.32;;
62673;SDS011;62269;47.594;17.638;2023-07-31T02:57:24;11.27;;;5.12;;
62673;SDS011;62269;47.594;17.638;2023-07-31T02:58:21;7.85;;;5.35;;
62673;SDS011;62269;47.594;17.638;2023-07-31T02:59:19;8.88;;;5.22;;
62673;SDS011;62269;47.594;17.638;2023-07-31T03:00:16;10.18;;;5.18;;
62673;SDS011;62269;47.594;17.638;2023-07-31T03:01:14;7.22;;;5.20;;
62673;SDS011;62269;47.594;17.638;2023-07-31T03:02:11;8.88;;;5.62;;
62673;SDS011;62269;47.594;17.638;2023-07-31T03:03:09;8.27;;;5.35;;
62673;SDS011;62269;47.594;17.638;2023-07-31T03:04:07;11.80;;;5.62;;
62673;SDS011;62269;47.594;17.638;2023-07-31T03:05:04;8.63;;;5.25;;
62673;SDS011;62269;47.594;17.638;2023-07-31T03:06:01;6.95;;;5.40;;
62673;SDS011;62269;47.594;17.638;2023-07-31T03:06:58;7.62;;;5.15;;
62673;SDS011;62269;47.594;17.638;2023-07-31T03:07:54;7.20;;;4.82;;
62673;SDS011;62269;47.594;17.638;2023-07-31T03:08:51;6.75;;;5.10;;
62673;SDS011;62269;47.594;17.638;2023-07-31T03:09:48;6.78;;;4.95;;
62673;SDS011;62269;47.594;17.638;2023-07-31T03:10:45;9.88;;;5.50;;
62673;SDS011;62269;47.594;17.638;2023-07-31T03:11:42;11.10;;;4.97;;
62673;SDS011;62269;47.594;17.638;2023-07-31T03:12:40;7.10;;;5.10;;
62673;SDS011;62269;47.594;17.638;2023-07-31T03:13:37;10.27;;;5.47;;
62673;SDS011;62269;47.594;17.638;2023-07-31T03:14:34;8.70;;;5.10;;
62673;SDS011;62269;47.594;17.638;2023-07-31T03:15:31;9.65;;;5.80;;
62673;SDS011;62269;47.594;17.638;2023-07-31T03:16:28;8.32;;;5.10;;
62673;SDS011;62269;47.594;17.638;2023-07-31T03:17:25;10.38;;;5.05;;
62673;SDS011;62269;47.594;17.638;2023-07-31T03:18:22;8.38;;;5.65;;
62673;SDS011;62269;47.594;17.638;2023-07-31T03:19:19;8.98;;;5.50;;
62673;SDS011;62269;47.594;17.638;2023-07-31T03:20:16;11.48;;;5.32;;
62673;SDS011;62269;47.594;17.638;2023-07-31T03:21:15;7.28;;;5.20;;
62673;SDS011;62269;47.594;17.638;2023-07-31T03:22:12;14.10;;;5.65;;
62673;SDS011;62269;47.594;17.638;2023-07-31T03:23:09;7.18;;;4.95;;
62673;SDS011;62269;47.594;17.638;2023-07-31T03:24:06;11.73;;;5.10;;
62673;SDS011;62269;47.594;17.638;2023-07-31T03:25:03;7.90;;;5.28;;
62673;SDS011;62269;47.594;17.638;2023-07-31T03:26:01;10.63;;;5.47;;
62673;SDS011;62269;47.594;17.638;2023-07-31T03:27:00;10.45;;;5.50;;
62673;SDS011;62269;47.594;17.638;2023-07-31T03:27:57;7.47;;;5.28;;
62673;SDS011;62269;47.594;17.638;2023-07-31T03:28:54;12.27;;;5.62;;
62673;SDS011;62269;47.594;17.638;2023-07-31T03:29:51;7.47;;;5.10;;
62673;SDS011;62269;47.594;17.638;2023-07-31T03:30:48;7.32;;;5.10;;
62673;SDS011;62269;47.594;17.638;2023-07-31T03:31:45;6.97;;;5.15;;
62673;SDS011;62269;47.594;17.638;2023-07-31T03:32:42;7.68;;;5.22;;
62673;SDS011;62269;47.594;17.638;2023-07-31T03:33:39;8.60;;;5.40;;
62673;SDS011;62269;47.594;17.638;2023-07-31T03:34:36;8.15;;;5.37;;
62673;SDS011;62269;47.594;17.638;2023-07-31T03:35:34;6.22;;;5.03;;
62673;SDS011;62269;47.594;17.638;2023-07-31T03:36:31;6.93;;;4.93;;
62673;SDS011;62269;47.594;17.638;2023-07-31T03:37:28;9.63;;;5.75;;
62673;SDS011;62269;47.594;17.638;2023-07-31T03:38:25;7.00;;;4.85;;
62673;SDS011;62269;47.594;17.638;2023-07-31T03:39:22;7.12;;;5.15;;
62673;SDS011;62269;47.594;17.638;2023-07-31T03:40:19;11.73;;;5.37;;
62673;SDS011;62269;47.594;17.638;2023-07-31T03:41:16;8.88;;;4.97;;
62673;SDS011;62269;47.594;17.638;2023-07-31T03:42:13;7.03;;;5.53;;
62673;SDS011;62269;47.594;17.638;2023-07-31T03:43:11;8.68;;;5.62;;
62673;SDS011;62269;47.594;17.638;2023-07-31T03:44:09;12.07;;;5.03;;
62673;SDS011;62269;47.594;17.638;2023-07-31T03:45:06;9.00;;;5.18;;
62673;SDS011;62269;47.594;17.638;2023-07-31T03:46:04;10.20;;;4.85;;
62673;SDS011;62269;47.594;17.638;2023-07-31T03:47:01;11.98;;;5.12;;
62673;SDS011;62269;47.594;17.638;2023-07-31T03:47:58;9.82;;;5.25;;
62673;SDS011;62269;47.594;17.638;2023-07-31T03:48:55;10.82;;;5.62;;
62673;SDS011;62269;47.594;17.638;2023-07-31T03:49:52;7.62;;;5.50;;
62673;SDS011;62269;47.594;17.638;2023-07-31T03:50:49;8.38;;;5.07;;
62673;SDS011;62269;47.594;17.638;2023-07-31T03:51:46;6.97;;;5.40;;
62673;SDS011;62269;47.594;17.638;2023-07-31T03:52:43;7.25;;;5.32;;
62673;SDS011;62269;47.594;17.638;2023-07-31T03:53:40;6.15;;;5.10;;
62673;SDS011;62269;47.594;17.638;2023-07-31T03:54:37;6.20;;;4.97;;
62673;SDS011;62269;47.594;17.638;2023-07-31T03:55:34;6.22;;;5.03;;
62673;SDS011;62269;47.594;17.638;2023-07-31T03:56:30;14.90;;;5.95;;
62673;SDS011;62269;47.594;17.638;2023-07-31T03:58:29;7.22;;;5.37;;
62673;SDS011;62269;47.594;17.638;2023-07-31T03:59:26;13.15;;;5.30;;
62673;SDS011;62269;47.594;17.638;2023-07-31T04:00:23;10.50;;;5.35;;
62673;SDS011;62269;47.594;17.638;2023-07-31T04:01:20;12.90;;;5.43;;
62673;SDS011;62269;47.594;17.638;2023-07-31T04:02:17;6.82;;;5.05;;
62673;SDS011;62269;47.594;17.638;2023-07-31T04:03:15;12.18;;;4.80;;
62673;SDS011;62269;47.594;17.638;2023-07-31T04:04:12;5.85;;;4.93;;
62673;SDS011;62269;47.594;17.638;2023-07-31T04:05:09;8.68;;;5.50;;
62673;SDS011;62269;47.594;17.638;2023-07-31T04:06:07;7.60;;;5.30;;
62673;SDS011;62269;47.594;17.638;2023-07-31T04:07:04;8.50;;;5.78;;
62673;SDS011;62269;47.594;17.638;2023-07-31T04:08:01;10.23;;;5.75;;
62673;SDS011;62269;47.594;17.638;2023-07-31T04:08:58;9.82;;;5.62;;
62673;SDS011;62269;47.594;17.638;2023-07-31T04:09:55;11.12;;;6.10;;
62673;SDS011;62269;47.594;17.638;2023-07-31T04:10:53;9.13;;;5.18;;
62673;SDS011;62269;47.594;17.638;2023-07-31T04:11:50;12.95;;;5.68;;
62673;SDS011;62269;47.594;17.638;2023-07-31T04:12:47;9.40;;;5.40;;
62673;SDS011;62269;47.594;17.638;2023-07-31T04:13:44;10.70;;;5.32;;
62673;SDS011;62269;47.594;17.638;2023-07-31T04:14:41;7.45;;;4.93;;
62673;SDS011;62269;47.594;17.638;2023-07-31T04:15:38;8.60;;;5.40;;
62673;SDS011;62269;47.594;17.638;2023-07-31T04:16:35;11.70;;;5.70;;
62673;SDS011;62269;47.594;17.638;2023-07-31T04:17:33;8.10;;;5.40;;
62673;SDS011;62269;47.594;17.638;2023-07-31T04:18:30;10.27;;;5.05;;
62673;SDS011;62269;47.594;17.638;2023-07-31T04:19:28;7.53;;;5.35;;
62673;SDS011;62269;47.594;17.638;2023-07-31T04:20:25;11.55;;;5.35;;
62673;SDS011;62269;47.594;17.638;2023-07-31T04:21:22;8.02;;;4.97;;
62673;SDS011;62269;47.594;17.638;2023-07-31T04:22:19;9.25;;;6.05;;
62673;SDS011;62269;47.594;17.638;2023-07-31T04:23:16;11.88;;;5.15;;
62673;SDS011;62269;47.594;17.638;2023-07-31T04:24:13;8.82;;;5.15;;
62673;SDS011;62269;47.594;17.638;2023-07-31T04:25:11;10.93;;;4.97;;
62673;SDS011;62269;47.594;17.638;2023-07-31T04:26:08;6.40;;;5.07;;
62673;SDS011;62269;47.594;17.638;2023-07-31T04:27:05;8.82;;;5.25;;
62673;SDS011;62269;47.594;17.638;2023-07-31T04:28:02;8.63;;;5.35;;
62673;SDS011;62269;47.594;17.638;2023-07-31T04:28:59;7.37;;;5.03;;
62673;SDS011;62269;47.594;17.638;2023-07-31T04:29:56;10.50;;;5.30;;
62673;SDS011;62269;47.594;17.638;2023-07-31T04:30:53;6.82;;;5.55;;
62673;SDS011;62269;47.594;17.638;2023-07-31T04:31:50;8.55;;;5.28;;
62673;SDS011;62269;47.594;17.638;2023-07-31T04:32:47;8.98;;;5.45;;
62673;SDS011;62269;47.594;17.638;2023-07-31T04:33:44;8.20;;;5.47;;
62673;SDS011;62269;47.594;17.638;2023-07-31T04:34:41;13.20;;;5.12;;
62673;SDS011;62269;47.594;17.638;2023-07-31T04:35:39;5.87;;;5.15;;
62673;SDS011;62269;47.594;17.638;2023-07-31T04:36:36;11.02;;;5.07;;
62673;SDS011;62269;47.594;17.638;2023-07-31T04:37:33;7.65;;;4.90;;
62673;SDS011;62269;47.594;17.638;2023-07-31T04:38:30;7.90;;;4.85;;
62673;SDS011;62269;47.594;17.638;2023-07-31T04:39:27;11.20;;;5.07;;
62673;SDS011;62269;47.594;17.638;2023-07-31T04:40:24;10.60;;;5.10;;
62673;SDS011;62269;47.594;17.638;2023-07-31T04:41:22;6.28;;;5.12;;
62673;SDS011;62269;47.594;17.638;2023-07-31T04:42:19;6.85;;;5.12;;
62673;SDS011;62269;47.594;17.638;2023-07-31T04:43:16;10.88;;;5.00;;
62673;SDS011;62269;47.594;17.638;2023-07-31T04:44:13;7.97;;;5.12;;
62673;SDS011;62269;47.594;17.638;2023-07-31T04:45:10;7.65;;;5.10;;
62673;SDS011;62269;47.594;17.638;2023-07-31T04:46:08;7.37;;;4.87;;
62673;SDS011;62269;47.594;17.638;2023-07-31T04:47:05;7.78;;;5.07;;
62673;SDS011;62269;47.594;17.638;2023-07-31T04:48:02;11.93;;;5.53;;
62673;SDS011;62269;47.594;17.638;2023-07-31T04:48:59;8.98;;;4.90;;
62673;SDS011;62269;47.594;17.638;2023-07-31T04:49:59;6.50;;;4.55;;
62673;SDS011;62269;47.594;17.638;2023-07-31T04:50:56;8.52;;;4.80;;
62673;SDS011;62269;47.594;17.638;2023-07-31T04:51:53;13.05;;;6.03;;
62673;SDS011;62269;47.594;17.638;2023-07-31T04:52:50;7.40;;;4.72;;
62673;SDS011;62269;47.594;17.638;2023-07-31T04:53:47;7.97;;;4.75;;
62673;SDS011;62269;47.594;17.638;2023-07-31T04:54:44;6.25;;;4.82;;
62673;SDS011;62269;47.594;17.638;2023-07-31T04:55:41;6.37;;;4.72;;
62673;SDS011;62269;47.594;17.638;2023-07-31T04:56:38;6.25;;;4.45;;
62673;SDS011;62269;47.594;17.638;2023-07-31T04:57:36;6.22;;;3.87;;
62673;SDS011;62269;47.594;17.638;2023-07-31T04:58:33;9.45;;;4.70;;
62673;SDS011;62269;47.594;17.638;2023-07-31T04:59:30;8.10;;;4.70;;
62673;SDS011;62269;47.594;17.638;2023-07-31T05:00:28;8.65;;;4.50;;
62673;SDS011;62269;47.594;17.638;2023-07-31T05:01:25;8.48;;;4.45;;
62673;SDS011;62269;47.594;17.638;2023-07-31T05:02:22;9.82;;;4.40;;
62673;SDS011;62269;47.594;17.638;2023-07-31T05:03:21;10.43;;;4.53;;
62673;SDS011;62269;47.594;17.638;2023-07-31T05:04:18;8.30;;;4.47;;
62673;SDS011;62269;47.594;17.638;2023-07-31T05:05:15;9.15;;;4.65;;
62673;SDS011;62269;47.594;17.638;2023-07-31T05:06:12;7.78;;;4.45;;
62673;SDS011;62269;47.594;17.638;2023-07-31T05:07:11;8.48;;;4.22;;
62673;SDS011;62269;47.594;17.638;2023-07-31T05:08:08;5.32;;;4.20;;
62673;SDS011;62269;47.594;17.638;2023-07-31T05:09:05;8.07;;;4.10;;
62673;SDS011;62269;47.594;17.638;2023-07-31T05:10:02;11.75;;;4.53;;
62673;SDS011;62269;47.594;17.638;2023-07-31T05:10:59;4.30;;;3.85;;
62673;SDS011;62269;47.594;17.638;2023-07-31T05:11:57;9.38;;;4.37;;
62673;SDS011;62269;47.594;17.638;2023-07-31T05:12:54;8.13;;;4.53;;
62673;SDS011;62269;47.594;17.638;2023-07-31T05:13:51;7.35;;;4.35;;
62673;SDS011;62269;47.594;17.638;2023-07-31T05:14:48;6.12;;;4.65;;
62673;SDS011;62269;47.594;17.638;2023-07-31T05:15:45;5.18;;;4.55;;
62673;SDS011;62269;47.594;17.638;2023-07-31T05:16:42;6.40;;;4.78;;
62673;SDS011;62269;47.594;17.638;2023-07-31T05:17:39;9.02;;;4.68;;
62673;SDS011;62269;47.594;17.638;2023-07-31T05:18:36;6.87;;;4.30;;
62673;SDS011;62269;47.594;17.638;2023-07-31T05:19:34;8.63;;;4.47;;
62673;SDS011;62269;47.594;17.638;2023-07-31T05:20:31;6.15;;;4.22;;
62673;SDS011;62269;47.594;17.638;2023-07-31T05:21:28;6.00;;;4.55;;
62673;SDS011;62269;47.594;17.638;2023-07-31T05:22:25;8.27;;;5.30;;
62673;SDS011;62269;47.594;17.638;2023-07-31T05:23:22;7.68;;;4.72;;
62673;SDS011;62269;47.594;17.638;2023-07-31T05:24:19;8.40;;;5.18;;
62673;SDS011;62269;47.594;17.638;2023-07-31T05:25:16;9.07;;;4.10;;
62673;SDS011;62269;47.594;17.638;2023-07-31T05:26:13;9.98;;;4.28;;
62673;SDS011;62269;47.594;17.638;2023-07-31T05:27:14;9.95;;;4.40;;
62673;SDS011;62269;47.594;17.638;2023-07-31T05:28:15;8.27;;;4.55;;
62673;SDS011;62269;47.594;17.638;2023-07-31T05:29:11;8.50;;;4.35;;
62673;SDS011;62269;47.594;17.638;2023-07-31T05:30:09;6.05;;;4.40;;
62673;SDS011;62269;47.594;17.638;2023-07-31T05:31:06;7.43;;;4.18;;
62673;SDS011;62269;47.594;17.638;2023-07-31T05:32:03;9.90;;;4.68;;
62673;SDS011;62269;47.594;17.638;2023-07-31T05:33:01;5.95;;;4.15;;
62673;SDS011;62269;47.594;17.638;2023-07-31T05:33:58;4.70;;;3.95;;
62673;SDS011;62269;47.594;17.638;2023-07-31T05:34:55;7.37;;;4.15;;
62673;SDS011;62269;47.594;17.638;2023-07-31T05:35:52;6.18;;;4.30;;
62673;SDS011;62269;47.594;17.638;2023-07-31T05:36:49;10.02;;;4.68;;
62673;SDS011;62269;47.594;17.638;2023-07-31T05:37:46;9.35;;;4.50;;
62673;SDS011;62269;47.594;17.638;2023-07-31T05:38:43;9.43;;;4.30;;
62673;SDS011;62269;47.594;17.638;2023-07-31T05:39:41;5.15;;;4.03;;
62673;SDS011;62269;47.594;17.638;2023-07-31T05:40:38;7.20;;;4.70;;
62673;SDS011;62269;47.594;17.638;2023-07-31T05:41:35;8.05;;;4.43;;
62673;SDS011;62269;47.594;17.638;2023-07-31T05:42:32;8.20;;;4.40;;
62673;SDS011;62269;47.594;17.638;2023-07-31T05:43:29;8.35;;;4.32;;
62673;SDS011;62269;47.594;17.638;2023-07-31T05:44:26;11.25;;;3.97;;
62673;SDS011;62269;47.594;17.638;2023-07-31T05:45:24;6.28;;;4.20;;
62673;SDS011;62269;47.594;17.638;2023-07-31T05:46:22;8.50;;;4.00;;